createdAt,value
2022-12-18T00:01:14.547Z,100042.00
2022-12-18T00:03:16.953Z,100035.94
2022-12-18T00:05:18.556Z,100042.22
2022-12-18T00:07:31.930Z,100041.34
2022-12-18T00:09:39.666Z,100038.78
2022-12-18T00:11:44.410Z,100035.41
2022-12-18T00:13:46.531Z,100035.84
2022-12-18T00:15:48.188Z,100035.00
2022-12-18T00:17:50.041Z,100035.09
2022-12-18T00:19:53.149Z,100035.22
2022-12-18T00:21:55.227Z,100028.19
2022-12-18T00:23:58.066Z,100038.06
2022-12-18T00:26:04.672Z,100041.78
2022-12-18T00:28:06.621Z,100042.63
2022-12-18T00:30:08.878Z,100035.75
2022-12-18T00:32:11.504Z,100040.31
2022-12-18T00:34:14.093Z,100045.69
2022-12-18T00:36:20.887Z,100047.53
2022-12-18T00:38:22.655Z,100046.75
2022-12-18T00:40:28.064Z,100041.47
2022-12-18T00:42:48.280Z,100031.81
2022-12-18T00:44:49.809Z,100034.47
2022-12-18T00:46:52.674Z,100037.34
2022-12-18T00:48:54.556Z,100033.09
2022-12-18T00:50:56.702Z,100029.72
2022-12-18T00:52:58.660Z,100028.84
2022-12-18T00:57:07.581Z,100029.25
2022-12-18T00:59:09.108Z,100037.44
2022-12-18T01:01:10.894Z,100041.16
2022-12-18T01:03:15.949Z,100041.25
2022-12-18T01:05:19.473Z,100044.94
2022-12-18T01:07:21.078Z,100047.72
2022-12-18T01:09:25.439Z,100053.00
2022-12-18T01:11:27.391Z,100054.06
2022-12-18T01:13:38.973Z,100056.59
2022-12-18T01:15:41.013Z,100050.56
2022-12-18T01:17:46.354Z,100064.66
2022-12-18T01:19:48.043Z,100067.19
2022-12-18T01:21:49.872Z,100066.25
2022-12-18T01:23:56.201Z,100069.75
2022-12-18T01:25:59.072Z,100061.69
2022-12-18T01:28:00.815Z,100068.72
2022-12-18T01:30:02.387Z,100071.34
2022-12-18T01:32:05.537Z,100077.41
2022-12-18T01:34:07.187Z,100081.72
2022-12-18T01:36:16.386Z,100081.72
2022-12-18T01:38:18.854Z,100077.28
2022-12-18T01:40:20.971Z,100086.94
2022-12-18T01:42:26.610Z,100088.94
2022-12-18T01:45:05.811Z,100088.00
2022-12-18T01:47:07.510Z,100081.72
2022-12-18T01:49:12.943Z,100084.38
2022-12-18T01:51:15.206Z,100084.50
2022-12-18T01:53:25.421Z,100095.09
2022-12-18T01:55:30.590Z,100092.44
2022-12-18T01:57:32.201Z,100093.09
2022-12-18T01:59:37.804Z,100092.25
2022-12-18T02:01:42.782Z,100091.25
2022-12-18T02:03:44.999Z,100098.59
2022-12-18T02:06:08.582Z,100099.53
2022-12-18T02:08:40.729Z,100102.19
2022-12-18T02:11:07.141Z,100094.34
2022-12-18T02:13:21.131Z,100083.75
2022-12-18T02:16:07.907Z,100077.59
2022-12-18T02:18:16.662Z,100080.44
2022-12-18T02:20:47.894Z,100081.41
2022-12-18T02:23:00.727Z,100073.66
2022-12-18T02:25:22.610Z,100072.06
2022-12-18T02:27:24.245Z,100075.56
2022-12-18T02:29:54.357Z,100080.03
2022-12-18T02:32:01.057Z,100085.63
2022-12-18T02:34:08.530Z,100086.69
2022-12-18T02:36:17.092Z,100092.06
2022-12-18T02:38:19.283Z,100085.91
2022-12-18T02:40:27.433Z,100093.84
2022-12-18T02:42:29.694Z,100094.81
2022-12-18T02:44:31.417Z,100100.00
2022-12-18T02:46:40.246Z,100092.38
2022-12-18T02:48:47.678Z,100098.53
2022-12-18T02:51:00.984Z,100099.38
2022-12-18T02:53:05.410Z,100102.78
2022-12-18T02:55:43.959Z,100108.06
2022-12-18T02:57:58.589Z,100115.28
2022-12-18T03:00:13.237Z,100109.13
2022-12-18T03:02:30.031Z,100107.34
2022-12-18T03:04:41.201Z,100102.97
2022-12-18T03:06:52.369Z,100097.78
2022-12-18T03:08:59.607Z,100083.78
2022-12-18T03:11:07.147Z,100089.28
2022-12-18T03:13:13.607Z,100087.47
2022-12-18T03:15:23.882Z,100094.69
2022-12-18T03:17:34.832Z,100093.63
2022-12-18T03:19:36.902Z,100098.19
2022-12-18T03:21:54.183Z,100100.09
2022-12-18T03:23:56.759Z,100112.47
2022-12-18T03:26:08.222Z,100120.53
2022-12-18T03:28:20.655Z,100117.88
2022-12-18T03:30:23.269Z,100113.53
2022-12-18T03:32:41.594Z,100108.03
2022-12-18T03:34:47.862Z,100117.66
2022-12-18T03:36:51.090Z,100118.63
2022-12-18T03:38:53.488Z,100125.81
2022-12-18T03:41:32.981Z,100133.53
2022-12-18T03:43:59.903Z,100140.44
2022-12-18T03:46:18.140Z,100129.34
2022-12-18T03:49:21.438Z,100128.09
2022-12-18T03:51:35.744Z,100130.44
2022-12-18T03:54:02.327Z,100133.94
2022-12-18T03:56:10.077Z,100131.84
2022-12-18T03:58:20.660Z,100128.44
2022-12-18T04:00:31.470Z,100121.25
2022-12-18T04:02:54.869Z,100131.94
2022-12-18T04:05:07.711Z,100136.28
2022-12-18T04:07:14.429Z,100135.88
2022-12-18T04:09:22.107Z,100136.63
2022-12-18T04:11:24.653Z,100138.34
2022-12-18T04:13:35.184Z,100137.16
2022-12-18T04:15:39.951Z,100144.91
2022-12-18T04:17:50.913Z,100130.72
2022-12-18T04:19:55.879Z,100135.78
2022-12-18T04:21:59.665Z,100138.16
2022-12-18T04:24:02.516Z,100140.91
2022-12-18T04:26:05.175Z,100154.16
2022-12-18T04:28:18.842Z,100157.53
2022-12-18T04:30:21.358Z,100150.56
2022-12-18T04:32:25.551Z,100151.41
2022-12-18T04:34:29.842Z,100143.56
2022-12-18T04:36:33.202Z,100137.50
2022-12-18T04:38:34.951Z,100144.59
2022-12-18T04:40:42.445Z,100142.06
2022-12-18T04:42:52.549Z,100146.31
2022-12-18T04:44:54.221Z,100144.59
2022-12-18T04:46:58.761Z,100123.31
2022-12-18T04:49:00.323Z,100124.25
2022-12-18T04:51:01.973Z,100121.28
2022-12-18T04:53:06.485Z,100118.56
2022-12-18T04:55:08.457Z,100128.09
2022-12-18T04:57:10.212Z,100131.56
2022-12-18T04:59:11.876Z,100137.66
2022-12-18T05:01:14.922Z,100141.97
2022-12-18T05:03:16.791Z,100149.94
2022-12-18T05:05:18.656Z,100141.97
2022-12-18T05:07:20.453Z,100131.38
2022-12-18T05:09:22.416Z,100131.91
2022-12-18T05:11:24.037Z,100132.88
2022-12-18T05:13:25.598Z,100133.81
2022-12-18T05:15:31.539Z,100138.81
2022-12-18T05:17:33.149Z,100141.38
2022-12-18T05:19:34.725Z,100153.66
2022-12-18T05:21:36.556Z,100158.03
2022-12-18T05:23:38.808Z,100155.38
2022-12-18T05:25:40.804Z,100156.22
2022-12-18T05:27:43.384Z,100168.63
2022-12-18T05:29:53.835Z,100159.06
2022-12-18T05:31:58.120Z,100160.88
2022-12-18T05:33:59.705Z,100153.03
2022-12-18T05:36:03.602Z,100158.22
2022-12-18T05:38:07.741Z,100157.38
2022-12-18T05:40:13.068Z,100158.22
2022-12-18T05:42:14.641Z,100156.44
2022-12-18T05:44:17.379Z,100157.16
2022-12-18T05:46:19.652Z,100164.19
2022-12-18T05:48:24.256Z,100163.00
2022-12-18T05:50:25.873Z,100161.22
2022-12-18T05:52:27.573Z,100160.91
2022-12-18T05:54:29.494Z,100159.94
2022-12-18T05:56:31.214Z,100156.31
2022-12-18T05:58:35.983Z,100151.69
2022-12-18T06:00:40.835Z,100152.94
2022-12-18T06:02:45.002Z,100149.22
2022-12-18T06:04:50.687Z,100156.88
2022-12-18T06:06:52.299Z,100160.06
2022-12-18T06:08:55.853Z,100171.44
2022-12-18T06:10:57.455Z,100171.00
2022-12-18T06:12:59.271Z,100173.22
2022-12-18T06:15:01.426Z,100172.06
2022-12-18T06:17:03.334Z,100177.03
2022-12-18T06:19:06.586Z,100173.56
2022-12-18T06:21:08.278Z,100163.47
2022-12-18T06:23:13.364Z,100160.47
2022-12-18T06:25:17.024Z,100158.22
2022-12-18T06:27:21.945Z,100154.16
2022-12-18T06:29:23.675Z,100149.28
2022-12-18T06:31:26.269Z,100146.16
2022-12-18T06:33:29.127Z,100159.88
2022-12-18T06:35:30.689Z,100162.81
2022-12-18T06:37:32.980Z,100168.41
2022-12-18T06:39:35.004Z,100179.56
2022-12-18T06:41:40.797Z,100162.97
2022-12-18T06:43:45.656Z,100160.81
2022-12-18T06:45:53.572Z,100174.84
2022-12-18T06:47:55.261Z,100168.88
2022-12-18T06:49:56.775Z,100181.59
2022-12-18T06:51:58.376Z,100183.69
2022-12-18T06:53:59.979Z,100189.25
2022-12-18T06:56:10.392Z,100193.41
2022-12-18T06:58:12.402Z,100189.53
2022-12-18T07:00:14.576Z,100193.91
2022-12-18T07:02:16.426Z,100188.03
2022-12-18T07:04:18.887Z,100183.31
2022-12-18T07:06:22.510Z,100177.78
2022-12-18T07:08:24.169Z,100178.19
2022-12-18T07:10:26.966Z,100168.03
2022-12-18T07:12:28.875Z,100166.81
2022-12-18T07:14:30.677Z,100171.69
2022-12-18T07:16:32.310Z,100167.69
2022-12-18T07:18:36.963Z,100170.13
2022-12-18T07:20:38.576Z,100173.19
2022-12-18T07:22:40.402Z,100173.78
2022-12-18T07:24:44.407Z,100170.66
2022-12-18T07:26:52.227Z,100178.41
2022-12-18T07:28:58.546Z,100174.53
2022-12-18T07:31:04.788Z,100182.38
2022-12-18T07:33:06.614Z,100183.00
2022-12-18T07:35:08.209Z,100184.47
2022-12-18T07:37:09.793Z,100180.72
2022-12-18T07:39:14.683Z,100183.28
2022-12-18T07:41:16.910Z,100188.59
2022-12-18T07:43:21.298Z,100192.94
2022-12-18T07:45:23.162Z,100200.09
2022-12-18T07:47:24.844Z,100207.97
2022-12-18T07:49:26.604Z,100201.78
2022-12-18T07:51:28.275Z,100212.34
2022-12-18T07:53:29.994Z,100209.66
2022-12-18T07:55:59.973Z,100212.19
2022-12-18T07:57:59.404Z,100226.38
2022-12-18T08:00:04.026Z,100225.38
2022-12-18T08:02:16.218Z,100215.50
2022-12-18T08:04:18.233Z,100205.94
2022-12-18T08:06:25.294Z,100214.72
2022-12-18T08:08:27.105Z,100210.25
2022-12-18T08:10:30.904Z,100214.72
2022-12-18T08:12:32.565Z,100216.56
2022-12-18T08:14:34.146Z,100214.50
2022-12-18T08:16:37.736Z,100217.06
2022-12-18T08:18:39.506Z,100209.91
2022-12-18T08:20:44.106Z,100215.97
2022-12-18T08:22:45.864Z,100219.59
2022-12-18T08:24:49.971Z,100217.56
2022-12-18T08:27:20.848Z,100210.41
2022-12-18T08:29:21.434Z,100217.44
2022-12-18T08:31:24.155Z,100214.53
2022-12-18T08:33:27.182Z,100222.28
2022-12-18T08:35:34.236Z,100221.44
2022-12-18T08:37:38.228Z,100216.97
2022-12-18T08:39:39.803Z,100224.72
2022-12-18T08:41:41.443Z,100222.06
2022-12-18T08:44:02.293Z,100221.78
2022-12-18T08:46:04.124Z,100216.38
2022-12-18T08:48:06.149Z,100218.91
2022-12-18T08:50:08.067Z,100207.28
2022-12-18T08:52:09.932Z,100214.28
2022-12-18T08:54:15.014Z,100214.28
2022-12-18T08:56:18.427Z,100212.38
2022-12-18T08:58:20.917Z,100214.91
2022-12-18T09:00:22.965Z,100217.44
2022-12-18T09:02:24.602Z,100214.91
2022-12-18T09:04:26.321Z,100208.50
2022-12-18T09:06:27.999Z,100199.53
2022-12-18T09:08:30.211Z,100202.06
2022-12-18T09:10:32.014Z,100198.31
2022-12-18T09:12:35.774Z,100207.03
2022-12-18T09:14:41.243Z,100206.78
2022-12-18T09:16:43.396Z,100206.66
2022-12-18T09:18:47.488Z,100216.00
2022-12-18T09:20:52.680Z,100208.97
2022-12-18T09:22:57.179Z,100209.72
2022-12-18T09:24:58.951Z,100199.53
2022-12-18T09:27:00.776Z,100195.63
2022-12-18T09:29:04.231Z,100191.75
2022-12-18T09:31:08.711Z,100191.38
2022-12-18T09:33:10.817Z,100189.06
2022-12-18T09:35:12.542Z,100179.88
2022-12-18T09:37:14.564Z,100174.25
2022-12-18T09:39:16.127Z,100177.63
2022-12-18T09:41:48.948Z,100177.13
2022-12-18T09:43:54.852Z,100169.13
2022-12-18T09:46:02.338Z,100176.38
2022-12-18T09:48:06.262Z,100177.06
2022-12-18T09:50:25.249Z,100176.34
2022-12-18T09:52:38.765Z,100175.81
2022-12-18T09:55:05.438Z,100170.56
2022-12-18T09:57:07.297Z,100178.34
2022-12-18T09:59:24.246Z,100174.28
2022-12-18T10:01:34.041Z,100181.66
2022-12-18T10:03:40.990Z,100175.94
2022-12-18T10:05:55.303Z,100173.72
2022-12-18T10:08:22.749Z,100170.97
2022-12-18T10:10:31.136Z,100166.34
2022-12-18T10:13:13.599Z,100163.22
2022-12-18T10:15:25.790Z,100153.03
2022-12-18T10:17:51.520Z,100147.31
2022-12-18T10:20:06.111Z,100131.53
2022-12-18T10:22:27.364Z,100136.63
2022-12-18T10:24:45.216Z,100137.63
2022-12-18T10:26:48.139Z,100132.91
2022-12-18T10:28:52.089Z,100130.94
2022-12-18T10:30:54.168Z,100125.94
2022-12-18T10:33:03.077Z,100134.94
2022-12-18T10:35:05.571Z,100139.16
2022-12-18T10:37:16.694Z,100132.75
2022-12-18T10:39:28.841Z,100137.13
2022-12-18T10:41:31.955Z,100144.03
2022-12-18T10:43:35.339Z,100138.28
2022-12-18T10:45:36.930Z,100145.19
2022-12-18T10:47:46.238Z,100143.63
2022-12-18T10:49:54.879Z,100145.22
2022-12-18T10:52:29.032Z,100142.63
2022-12-18T10:54:32.534Z,100145.19
2022-12-18T10:56:38.688Z,100143.78
2022-12-18T10:58:45.859Z,100149.25
2022-12-18T11:01:16.613Z,100156.44
2022-12-18T11:03:38.437Z,100152.50
2022-12-18T11:05:40.195Z,100140.06
2022-12-18T11:07:57.998Z,100133.16
2022-12-18T11:10:03.561Z,100119.19
2022-12-18T11:12:19.094Z,100126.50
2022-12-18T11:14:47.589Z,100122.53
2022-12-18T11:19:27.290Z,100117.94
2022-12-18T11:21:29.949Z,100110.91
2022-12-18T11:23:31.547Z,100109.31
2022-12-18T11:25:37.320Z,100103.78
2022-12-18T11:27:40.985Z,100090.78
2022-12-18T11:29:46.567Z,100109.13
2022-12-18T11:31:48.966Z,100098.94
2022-12-18T11:34:27.611Z,100104.00
2022-12-18T11:36:23.127Z,100101.56
2022-12-18T11:38:38.478Z,100101.25
2022-12-18T11:40:45.106Z,100099.97
2022-12-18T11:42:55.831Z,100097.22
2022-12-18T11:45:28.535Z,100090.03
2022-12-18T11:47:53.317Z,100086.22
2022-12-18T11:49:57.953Z,100077.44
2022-12-18T11:52:21.861Z,100076.00
2022-12-18T11:54:23.642Z,100071.31
2022-12-18T11:56:40.260Z,100078.09
2022-12-18T11:59:00.220Z,100080.69
2022-12-18T12:01:16.012Z,100084.63
2022-12-18T12:03:41.151Z,100087.97
2022-12-18T12:05:58.104Z,100080.22
2022-12-18T12:08:20.713Z,100079.16
2022-12-18T12:10:49.397Z,100069.41
2022-12-18T12:13:24.791Z,100069.25
2022-12-18T12:15:46.130Z,100056.50
2022-12-18T12:18:11.511Z,100048.53
2022-12-18T12:20:39.456Z,100041.38
2022-12-18T12:25:53.999Z,100041.41
2022-12-18T12:28:27.717Z,100035.63
2022-12-18T12:31:16.727Z,100035.50
2022-12-18T12:33:52.368Z,100028.59
2022-12-18T12:36:17.973Z,100032.81
2022-12-18T12:38:29.058Z,100032.50
2022-12-18T12:40:55.220Z,100037.94
2022-12-18T12:43:15.809Z,100034.25
2022-12-18T12:45:34.071Z,100036.66
2022-12-18T12:47:42.994Z,100034.63
2022-12-18T12:49:48.718Z,100036.84
2022-12-18T12:52:04.218Z,100025.44
2022-12-18T12:54:13.966Z,100024.97
2022-12-18T12:56:19.576Z,100022.09
2022-12-18T12:58:55.150Z,100022.28
2022-12-18T13:01:08.548Z,100026.47
2022-12-18T13:03:36.331Z,100029.22
2022-12-18T13:05:49.279Z,100025.50
2022-12-18T13:07:59.322Z,100022.19
2022-12-18T13:10:17.658Z,100020.47
2022-12-18T13:12:39.971Z,100016.13
2022-12-18T13:14:42.536Z,100005.72
2022-12-18T13:16:44.156Z,100006.06
2022-12-18T13:18:51.927Z,100004.56
2022-12-18T13:21:03.272Z,99998.00
2022-12-18T13:23:24.116Z,99995.84
2022-12-18T13:25:34.174Z,99998.69
2022-12-18T13:27:49.798Z,100002.91
2022-12-18T13:29:56.867Z,100018.22
2022-12-18T13:32:00.799Z,100024.59
2022-12-18T13:34:28.264Z,100023.75
2022-12-18T13:36:32.920Z,100029.97
2022-12-18T13:38:36.925Z,100023.75
2022-12-18T13:40:44.417Z,100016.50
2022-12-18T13:43:06.043Z,100000.38
2022-12-18T13:45:42.813Z,99990.63
2022-12-18T13:47:45.048Z,99979.50
2022-12-18T13:49:49.392Z,99986.59
2022-12-18T13:51:54.871Z,99980.72
2022-12-18T13:54:18.151Z,99984.25
2022-12-18T13:56:25.868Z,99977.16
2022-12-18T13:58:27.542Z,99979.19
2022-12-18T14:00:30.725Z,99972.16
2022-12-18T14:02:34.057Z,99976.81
2022-12-18T14:04:37.095Z,99968.75
2022-12-18T14:06:39.815Z,99968.75
2022-12-18T14:08:45.298Z,99969.78
2022-12-18T14:10:56.790Z,99974.31
2022-12-18T14:13:06.670Z,99985.25
2022-12-18T14:15:27.547Z,99982.88
2022-12-18T14:17:29.312Z,99987.75
2022-12-18T14:19:35.599Z,99990.28
2022-12-18T14:21:38.969Z,100000.38
2022-12-18T14:23:43.693Z,100001.53
2022-12-18T14:25:47.155Z,100005.75
2022-12-18T14:27:52.809Z,100017.69
2022-12-18T14:29:54.485Z,100009.63
2022-12-18T14:32:17.550Z,100017.69
2022-12-18T14:34:21.592Z,100014.50
2022-12-18T14:36:29.863Z,100011.28
2022-12-18T14:38:37.552Z,100009.56
2022-12-18T14:40:39.269Z,100002.34
2022-12-18T14:42:42.984Z,100006.88
2022-12-18T14:45:13.005Z,99999.31
2022-12-18T14:47:06.353Z,100008.41
2022-12-18T14:49:34.866Z,100004.19
2022-12-18T14:51:40.365Z,100005.38
2022-12-18T14:53:57.877Z,100007.34
2022-12-18T14:55:59.563Z,100000.97
2022-12-18T14:58:01.067Z,99998.59
2022-12-18T15:00:19.716Z,100001.59
2022-12-18T15:02:26.156Z,100009.69
2022-12-18T15:04:30.783Z,100004.66
2022-12-18T15:06:38.417Z,100006.63
2022-12-18T15:08:39.917Z,100015.72
2022-12-18T15:10:48.692Z,100015.19
2022-12-18T15:12:56.380Z,100010.13
2022-12-18T15:14:58.227Z,100008.47
2022-12-18T15:17:18.754Z,100010.31
2022-12-18T15:19:22.528Z,100008.78
2022-12-18T15:21:25.809Z,100010.78
2022-12-18T15:23:34.940Z,100011.97
2022-12-18T15:25:38.859Z,100011.28
2022-12-18T15:27:50.779Z,100004.53
2022-12-18T15:30:19.905Z,100007.22
2022-12-18T15:32:22.934Z,100004.53
2022-12-18T15:34:24.963Z,100005.84
2022-12-18T15:36:30.549Z,100006.84
2022-12-18T15:38:32.892Z,100006.34
2022-12-18T15:40:34.639Z,100017.09
2022-12-18T15:42:54.973Z,100020.09
2022-12-18T15:44:56.665Z,100022.09
2022-12-18T15:46:59.162Z,100017.72
2022-12-18T15:49:04.123Z,100024.09
2022-12-18T15:51:09.165Z,100023.41
2022-12-18T15:53:13.434Z,100016.50
2022-12-18T15:55:37.923Z,100019.38
2022-12-18T15:57:40.137Z,100008.06
2022-12-18T15:59:45.181Z,100013.44
2022-12-18T16:01:49.335Z,100005.69
2022-12-18T16:03:54.512Z,100008.25
2022-12-18T16:05:56.387Z,100013.75
2022-12-18T16:07:59.439Z,100012.09
2022-12-18T16:10:02.420Z,100010.41
2022-12-18T16:12:04.833Z,100014.41
2022-12-18T16:14:22.962Z,100014.41
2022-12-18T16:16:25.739Z,100007.34
2022-12-18T16:18:30.914Z,100005.69
2022-12-18T16:20:32.739Z,100003.13
2022-12-18T16:22:34.514Z,100000.59
2022-12-18T16:24:37.247Z,99999.59
2022-12-18T16:26:45.017Z,99993.53
2022-12-18T16:28:48.518Z,99999.94
2022-12-18T16:30:50.533Z,99997.25
2022-12-18T16:32:52.129Z,99998.06
2022-12-18T16:34:53.676Z,99992.19
2022-12-18T16:37:01.710Z,99989.50
2022-12-18T16:39:06.850Z,99994.19
2022-12-18T16:41:35.082Z,99999.88
2022-12-18T16:43:36.774Z,99997.19
2022-12-18T16:45:38.597Z,100000.19
2022-12-18T16:47:40.560Z,99999.19
2022-12-18T16:49:46.040Z,99997.50
2022-12-18T16:51:48.221Z,99994.13
2022-12-18T16:53:49.742Z,99991.28
2022-12-18T16:55:56.067Z,99983.22
2022-12-18T16:58:00.798Z,99985.38
2022-12-18T17:00:08.789Z,99992.59
2022-12-18T17:02:32.325Z,99994.44
2022-12-18T17:04:37.250Z,99989.91
2022-12-18T17:06:41.637Z,99981.31
2022-12-18T17:08:45.886Z,99985.69
2022-12-18T17:10:52.682Z,99981.31
2022-12-18T17:12:57.271Z,99986.69
2022-12-18T17:14:59.120Z,99978.78
2022-12-18T17:17:24.456Z,99990.38
2022-12-18T17:19:27.107Z,99983.31
2022-12-18T17:21:29.184Z,99977.94
2022-12-18T17:23:32.897Z,99983.63
2022-12-18T17:25:34.550Z,99976.41
2022-12-18T17:27:36.171Z,99984.47
2022-12-18T17:29:42.448Z,99982.78
2022-12-18T17:31:48.257Z,99987.28
2022-12-18T17:33:50.806Z,99981.09
2022-12-18T17:36:02.135Z,99983.78
2022-12-18T17:38:09.102Z,99980.25
2022-12-18T17:40:11.999Z,99978.72
2022-12-18T17:42:16.574Z,99977.88
2022-12-18T17:44:21.328Z,99980.56
2022-12-18T17:46:24.213Z,99985.94
2022-12-18T17:48:25.785Z,99982.25
2022-12-18T17:50:27.610Z,99985.94
2022-12-18T17:52:29.438Z,99985.94
2022-12-18T17:54:33.576Z,99981.72
2022-12-18T17:56:35.358Z,99982.56
2022-12-18T17:58:42.730Z,99979.22
2022-12-18T18:00:44.426Z,99982.88
2022-12-18T18:02:47.729Z,99971.47
2022-12-18T18:04:49.546Z,99975.13
2022-12-18T18:06:51.112Z,99974.16
2022-12-18T18:08:53.767Z,99976.16
2022-12-18T18:10:55.898Z,99977.69
2022-12-18T18:13:17.231Z,99976.16
2022-12-18T18:15:19.418Z,99969.09
2022-12-18T18:17:23.142Z,99956.50
2022-12-18T18:19:28.209Z,99963.72
2022-12-18T18:21:31.310Z,99971.09
2022-12-18T18:23:36.654Z,99981.16
2022-12-18T18:25:41.030Z,99968.53
2022-12-18T18:27:42.647Z,99970.06
2022-12-18T18:29:45.221Z,99975.59
2022-12-18T18:31:56.553Z,99966.03
2022-12-18T18:34:01.786Z,99963.16
2022-12-18T18:36:04.075Z,99964.00
2022-12-18T18:38:05.708Z,99971.09
2022-12-18T18:40:07.700Z,99968.41
2022-12-18T18:42:09.392Z,99960.47
2022-12-18T18:44:11.080Z,99954.28
2022-12-18T18:46:17.876Z,99951.63
2022-12-18T18:48:22.363Z,99951.63
2022-12-18T18:50:24.853Z,99951.63
2022-12-18T18:52:26.375Z,99953.28
2022-12-18T18:54:27.979Z,99947.06
2022-12-18T18:58:57.584Z,99942.53
2022-12-18T19:01:01.804Z,99935.50
2022-12-18T19:03:05.564Z,99929.13
2022-12-18T19:05:07.545Z,99927.28
2022-12-18T19:07:09.539Z,99925.59
2022-12-18T19:09:12.469Z,99929.97
2022-12-18T19:11:36.614Z,99926.28
2022-12-18T19:13:38.771Z,99922.91
2022-12-18T19:15:40.532Z,99913.84
2022-12-18T19:17:42.200Z,99917.38
2022-12-18T19:19:48.117Z,99921.06
2022-12-18T19:21:50.257Z,99920.75
2022-12-18T19:23:52.790Z,99928.81
2022-12-18T19:26:10.288Z,99931.50
2022-12-18T19:28:22.299Z,99925.59
2022-12-18T19:30:24.291Z,99924.75
2022-12-18T19:32:27.121Z,99925.59
2022-12-18T19:34:28.730Z,99924.75
2022-12-18T19:36:31.534Z,99920.22
2022-12-18T19:38:33.172Z,99914.16
2022-12-18T19:40:34.949Z,99928.44
2022-12-18T19:42:37.124Z,99926.75
2022-12-18T19:44:41.793Z,99925.75
2022-12-18T19:46:46.172Z,99927.44
2022-12-18T19:48:48.546Z,99917.38
2022-12-18T19:50:50.638Z,99916.53
2022-12-18T19:52:53.436Z,99916.38
2022-12-18T19:54:55.023Z,99916.53
2022-12-18T19:56:56.861Z,99913.69
2022-12-18T19:58:59.573Z,99907.31
2022-12-18T20:01:04.064Z,99910.19
2022-12-18T20:03:19.896Z,99917.53
2022-12-18T20:05:27.394Z,99916.84
2022-12-18T20:07:28.998Z,99915.00
2022-12-18T20:09:33.049Z,99909.81
2022-12-18T20:11:41.879Z,99916.84
2022-12-18T20:13:48.438Z,99920.38
2022-12-18T20:15:50.352Z,99920.22
2022-12-18T20:17:52.519Z,99918.38
2022-12-18T20:19:54.499Z,99911.34
2022-12-18T20:21:56.178Z,99908.66
2022-12-18T20:23:59.846Z,99897.91
2022-12-18T20:26:01.622Z,99888.16
2022-12-18T20:28:06.222Z,99904.28
2022-12-18T20:30:08.707Z,99901.59
2022-12-18T20:32:10.696Z,99908.50
2022-12-18T20:34:12.506Z,99899.59
2022-12-18T20:36:16.912Z,99904.09
2022-12-18T20:38:25.307Z,99913.19
2022-12-18T20:40:28.620Z,99914.03
2022-12-18T20:42:30.454Z,99920.06
2022-12-18T20:44:33.668Z,99921.06
2022-12-18T20:46:35.643Z,99923.75
2022-12-18T20:48:37.473Z,99911.72
2022-12-18T20:50:40.219Z,99907.31
2022-12-18T20:52:42.029Z,99909.16
2022-12-18T20:54:44.279Z,99909.84
2022-12-18T20:56:48.441Z,99893.91
2022-12-18T20:58:56.898Z,99877.47
2022-12-18T21:01:07.729Z,99877.78
2022-12-18T21:03:10.688Z,99872.25
2022-12-18T21:05:12.398Z,99868.75
2022-12-18T21:07:14.204Z,99876.63
2022-12-18T21:09:15.907Z,99874.13
2022-12-18T21:11:39.086Z,99886.69
2022-12-18T21:13:42.872Z,99883.69
2022-12-18T21:15:44.603Z,99882.84
2022-12-18T21:17:46.452Z,99869.44
2022-12-18T21:19:48.062Z,99877.31
2022-12-18T21:21:51.734Z,99878.00
2022-12-18T21:23:53.533Z,99874.31
2022-12-18T21:25:55.902Z,99878.00
2022-12-18T21:27:59.349Z,99884.06
2022-12-18T21:30:01.071Z,99869.78
2022-12-18T21:32:03.865Z,99866.09
2022-12-18T21:34:07.095Z,99865.09
2022-12-18T21:36:09.630Z,99872.63
2022-12-18T21:38:11.418Z,99869.78
2022-12-18T21:40:13.551Z,99874.84
2022-12-18T21:42:34.017Z,99872.16
2022-12-18T21:44:41.426Z,99876.81
2022-12-18T21:46:51.371Z,99866.44
2022-12-18T21:48:56.522Z,99866.25
2022-12-18T21:50:58.174Z,99860.72
2022-12-18T21:53:02.193Z,99862.72
2022-12-18T21:55:09.032Z,99864.44
2022-12-18T21:57:13.610Z,99868.63
2022-12-18T21:59:19.560Z,99870.16
2022-12-18T22:01:21.277Z,99869.31
2022-12-18T22:03:23.185Z,99862.94
2022-12-18T22:05:24.882Z,99860.09
2022-12-18T22:07:29.040Z,99853.03
2022-12-18T22:09:31.833Z,99855.56
2022-12-18T22:11:33.762Z,99858.25
2022-12-18T22:13:38.236Z,99860.09
2022-12-18T22:15:43.074Z,99858.78
2022-12-18T22:17:44.659Z,99853.56
2022-12-18T22:19:46.129Z,99856.41
2022-12-18T22:21:49.378Z,99851.03
2022-12-18T22:24:02.143Z,99855.56
2022-12-18T22:26:03.817Z,99847.34
2022-12-18T22:28:24.094Z,99847.03
2022-12-18T22:30:25.752Z,99860.31
2022-12-18T22:32:30.692Z,99877.25
2022-12-18T22:34:36.531Z,99874.41
2022-12-18T22:36:41.223Z,99872.91
2022-12-18T22:38:42.884Z,99875.41
2022-12-18T22:40:44.554Z,99863.69
2022-12-18T22:42:46.413Z,99865.50
2022-12-18T22:44:50.478Z,99858.13
2022-12-18T22:47:05.921Z,99860.81
2022-12-18T22:49:12.385Z,99858.97
2022-12-18T22:51:18.596Z,99868.56
2022-12-18T22:53:21.117Z,99876.44
2022-12-18T22:55:22.549Z,99870.25
2022-12-18T22:57:25.126Z,99856.13
2022-12-18T22:59:26.941Z,99855.81
2022-12-18T23:01:30.761Z,99855.81
2022-12-18T23:03:35.914Z,99860.19
2022-12-18T23:05:37.379Z,99860.19
2022-12-18T23:07:39.017Z,99849.75
2022-12-18T23:09:40.664Z,99852.28
2022-12-18T23:11:42.621Z,99849.75
2022-12-18T23:13:49.304Z,99834.63
2022-12-18T23:15:50.916Z,99838.16
2022-12-18T23:17:52.529Z,99844.38
2022-12-18T23:19:54.432Z,99848.59
2022-12-18T23:21:58.675Z,99839.00
2022-12-18T23:24:00.429Z,99847.75
2022-12-18T23:26:14.570Z,99849.75
2022-12-18T23:28:16.204Z,99850.44
2022-12-18T23:30:24.044Z,99846.91
2022-12-18T23:32:25.709Z,99843.22
2022-12-18T23:34:29.332Z,99837.84
2022-12-18T23:36:34.004Z,99842.38
2022-12-18T23:38:49.641Z,99862.88
2022-12-18T23:40:51.048Z,99855.50
2022-12-18T23:42:58.740Z,99857.50
2022-12-18T23:45:00.438Z,99854.81
2022-12-18T23:47:07.018Z,99856.47
2022-12-18T23:49:09.510Z,99850.28
2022-12-18T23:51:15.537Z,99845.72
2022-12-18T23:53:17.150Z,99839.53
2022-12-18T23:55:19.015Z,99836.50
2022-12-18T23:57:20.547Z,99834.84
2022-12-18T23:59:25.671Z,99832.84
